createdAt,value
2018-08-28T00:02:07.425Z,99.90
2018-08-28T00:04:37.391Z,99.90
2018-08-28T00:07:07.417Z,99.90
2018-08-28T00:09:37.481Z,99.90
2018-08-28T00:12:07.628Z,99.90
2018-08-28T00:14:37.625Z,99.90
2018-08-28T00:17:07.780Z,99.90
2018-08-28T00:19:37.911Z,99.90
2018-08-28T00:22:07.927Z,99.90
2018-08-28T00:24:37.930Z,99.90
2018-08-28T00:27:07.957Z,99.90
2018-08-28T00:29:37.974Z,99.90
2018-08-28T00:32:07.949Z,99.90
2018-08-28T00:34:38.340Z,99.90
2018-08-28T00:37:08.891Z,99.90
2018-08-28T00:39:39.366Z,99.90
2018-08-28T00:42:10.024Z,99.90
2018-08-28T00:44:40.599Z,99.90
2018-08-28T00:47:10.573Z,99.90
2018-08-28T00:49:40.543Z,99.90
2018-08-28T00:52:10.535Z,99.90
2018-08-28T00:54:43.470Z,99.90
2018-08-28T00:57:13.486Z,99.90
2018-08-28T00:59:43.492Z,99.90
2018-08-28T01:02:13.512Z,99.90
2018-08-28T01:04:43.507Z,99.90
2018-08-28T01:07:13.551Z,99.90
2018-08-28T01:09:43.596Z,99.90
2018-08-28T01:12:13.661Z,99.90
2018-08-28T01:14:43.713Z,99.90
2018-08-28T01:17:13.749Z,99.90
2018-08-28T01:19:43.850Z,99.90
2018-08-28T01:22:13.912Z,99.90
2018-08-28T01:24:43.951Z,99.90
2018-08-28T01:27:14.001Z,99.90
2018-08-28T01:29:44.076Z,99.90
2018-08-28T01:32:14.060Z,99.90
2018-08-28T01:34:44.109Z,99.90
2018-08-28T01:37:14.296Z,99.90
2018-08-28T01:39:44.348Z,99.90
2018-08-28T01:42:18.744Z,99.90
2018-08-28T01:44:49.089Z,99.90
2018-08-28T01:47:19.577Z,99.90
2018-08-28T01:49:50.049Z,99.90
2018-08-28T01:52:20.472Z,99.90
2018-08-28T01:54:50.491Z,99.90
2018-08-28T01:57:20.450Z,99.90
2018-08-28T01:59:50.544Z,99.90
2018-08-28T02:02:20.586Z,99.90
2018-08-28T02:04:50.647Z,99.90
2018-08-28T02:07:20.608Z,99.90
2018-08-28T02:09:50.607Z,99.90
2018-08-28T02:12:20.589Z,99.90
2018-08-28T02:14:50.596Z,99.90
2018-08-28T02:17:20.593Z,99.90
2018-08-28T02:19:50.608Z,99.90
2018-08-28T02:22:21.341Z,99.90
2018-08-28T02:24:51.419Z,99.90
2018-08-28T02:27:21.391Z,99.90
2018-08-28T02:29:51.356Z,99.90
2018-08-28T02:32:21.355Z,99.90
2018-08-28T02:34:51.458Z,99.90
2018-08-28T02:37:21.458Z,99.90
2018-08-28T02:39:51.435Z,99.90
2018-08-28T02:42:21.482Z,99.90
2018-08-28T02:44:51.770Z,99.90
2018-08-28T02:47:21.769Z,99.90
2018-08-28T02:49:51.786Z,99.90
2018-08-28T02:52:21.790Z,99.90
2018-08-28T02:54:51.821Z,99.90
2018-08-28T02:57:21.861Z,99.90
2018-08-28T02:59:52.122Z,99.90
2018-08-28T03:02:22.129Z,99.90
2018-08-28T03:04:52.093Z,99.90
2018-08-28T03:07:22.079Z,99.90
2018-08-28T03:09:52.121Z,99.90
2018-08-28T03:12:22.149Z,99.90
2018-08-28T03:14:52.179Z,99.90
2018-08-28T03:17:22.229Z,99.90
2018-08-28T03:19:52.279Z,99.90
2018-08-28T03:22:22.348Z,99.90
2018-08-28T03:24:52.476Z,99.90
2018-08-28T03:27:22.553Z,99.90
2018-08-28T03:29:52.599Z,99.90
2018-08-28T03:32:22.570Z,99.90
2018-08-28T03:34:52.628Z,99.90
2018-08-28T03:37:22.628Z,99.90
2018-08-28T03:39:52.945Z,99.90
2018-08-28T03:42:22.919Z,99.90
2018-08-28T03:44:52.978Z,99.90
2018-08-28T03:47:22.989Z,99.90
2018-08-28T03:49:52.981Z,99.90
2018-08-28T03:52:23.024Z,99.90
2018-08-28T03:54:53.118Z,99.90
2018-08-28T03:57:23.133Z,99.90
2018-08-28T03:59:53.140Z,99.90
2018-08-28T04:02:23.116Z,99.90
2018-08-28T04:04:53.167Z,99.90
2018-08-28T04:07:23.211Z,99.90
2018-08-28T04:09:53.304Z,99.90
2018-08-28T04:12:24.273Z,99.90
2018-08-28T04:14:54.281Z,99.90
2018-08-28T04:17:24.310Z,99.90
2018-08-28T04:19:54.375Z,99.90
2018-08-28T04:22:24.439Z,99.90
2018-08-28T04:24:54.441Z,99.90
2018-08-28T04:27:24.428Z,99.90
2018-08-28T04:29:54.497Z,99.90
2018-08-28T04:32:24.466Z,99.90
2018-08-28T04:34:54.507Z,99.90
2018-08-28T04:37:24.484Z,99.90
2018-08-28T04:39:54.502Z,99.90
2018-08-28T04:42:24.556Z,99.90
2018-08-28T04:44:54.619Z,99.90
2018-08-28T04:47:25.059Z,99.90
2018-08-28T04:49:55.424Z,99.90
2018-08-28T04:52:25.459Z,99.90
2018-08-28T04:54:56.108Z,99.90
2018-08-28T04:57:26.502Z,99.90
2018-08-28T04:59:57.981Z,99.90
2018-08-28T05:02:32.401Z,99.90
2018-08-28T05:05:03.602Z,99.90
2018-08-28T05:07:34.216Z,99.90
2018-08-28T05:10:05.317Z,99.90
2018-08-28T05:12:35.846Z,99.90
2018-08-28T05:15:06.515Z,99.90
2018-08-28T05:17:36.971Z,99.90
2018-08-28T05:20:07.476Z,99.90
2018-08-28T05:22:38.036Z,99.90
2018-08-28T05:25:08.427Z,99.90
2018-08-28T05:27:38.770Z,99.90
2018-08-28T05:30:09.991Z,99.90
2018-08-28T05:32:40.433Z,99.90
2018-08-28T05:35:11.097Z,99.90
2018-08-28T05:37:41.357Z,99.90
2018-08-28T05:40:11.942Z,99.90
2018-08-28T05:42:42.511Z,99.90
2018-08-28T05:45:12.830Z,99.90
2018-08-28T05:47:43.299Z,99.90
2018-08-28T05:50:13.642Z,99.90
2018-08-28T05:52:43.950Z,99.90
2018-08-28T05:55:14.318Z,99.90
2018-08-28T05:57:44.595Z,99.90
2018-08-28T06:00:14.888Z,99.90
2018-08-28T06:02:45.259Z,99.90
2018-08-28T06:05:15.706Z,99.90
2018-08-28T06:07:46.121Z,99.90
2018-08-28T06:10:16.547Z,99.90
2018-08-28T06:12:47.065Z,99.90
2018-08-28T06:15:17.264Z,99.90
2018-08-28T06:17:47.618Z,99.90
2018-08-28T06:20:18.136Z,99.90
2018-08-28T06:22:48.666Z,99.90
2018-08-28T06:25:19.251Z,99.90
2018-08-28T06:27:49.526Z,99.90
2018-08-28T06:30:19.931Z,99.90
2018-08-28T06:32:50.378Z,99.90
2018-08-28T06:35:20.951Z,99.90
2018-08-28T06:37:51.456Z,99.90
2018-08-28T06:40:22.107Z,99.90
2018-08-28T06:42:52.429Z,99.90
2018-08-28T06:45:22.729Z,99.90
2018-08-28T06:47:52.656Z,99.90
2018-08-28T06:50:22.613Z,99.90
2018-08-28T06:52:52.574Z,99.90
2018-08-28T06:55:22.505Z,99.90
2018-08-28T06:57:53.019Z,99.90
2018-08-28T07:00:23.252Z,99.90
2018-08-28T07:02:53.512Z,99.90
2018-08-28T07:05:24.008Z,99.90
2018-08-28T07:07:54.445Z,99.90
2018-08-28T07:10:24.652Z,99.90
2018-08-28T07:12:55.179Z,99.90
2018-08-28T07:15:25.601Z,99.90
2018-08-28T07:17:56.118Z,99.90
2018-08-28T07:20:26.702Z,99.90
2018-08-28T07:22:56.982Z,99.90
2018-08-28T07:25:28.135Z,99.90
2018-08-28T07:27:58.555Z,99.90
2018-08-28T07:30:28.923Z,99.90
2018-08-28T07:32:59.307Z,99.90
2018-08-28T07:35:29.839Z,99.90
2018-08-28T07:38:00.354Z,99.90
2018-08-28T07:40:30.832Z,99.90
2018-08-28T07:43:01.247Z,99.90
2018-08-28T07:45:31.813Z,99.90
2018-08-28T07:48:02.366Z,99.90
2018-08-28T07:50:32.609Z,99.90
2018-08-28T07:53:04.093Z,99.90
2018-08-28T07:55:34.686Z,99.90
2018-08-28T07:58:05.054Z,99.90
2018-08-28T08:00:35.387Z,99.90
2018-08-28T08:03:05.789Z,99.90
2018-08-28T08:05:36.431Z,99.90
2018-08-28T08:08:07.207Z,99.90
2018-08-28T08:10:37.738Z,99.90
2018-08-28T08:13:07.845Z,99.90
2018-08-28T08:15:38.314Z,99.90
2018-08-28T08:18:08.799Z,99.90
2018-08-28T08:20:40.457Z,99.90
2018-08-28T08:23:11.699Z,99.90
2018-08-28T08:25:42.711Z,99.90
2018-08-28T08:28:13.313Z,99.90
2018-08-28T08:30:44.278Z,99.90
2018-08-28T08:33:14.799Z,99.90
2018-08-28T08:35:45.228Z,99.90
2018-08-28T08:38:15.676Z,99.90
2018-08-28T08:40:46.055Z,99.90
2018-08-28T08:43:16.598Z,99.90
2018-08-28T08:45:46.949Z,99.90
2018-08-28T08:48:17.215Z,99.90
2018-08-28T08:50:47.584Z,99.90
2018-08-28T08:53:17.913Z,99.90
2018-08-28T08:55:48.445Z,99.90
2018-08-28T08:58:18.922Z,99.90
2018-08-28T09:00:49.283Z,99.90
2018-08-28T09:03:19.554Z,99.90
2018-08-28T09:05:50.044Z,99.90
2018-08-28T09:08:20.659Z,99.90
2018-08-28T09:10:51.106Z,99.90
2018-08-28T09:13:21.401Z,99.40
2018-08-28T09:15:51.694Z,98.70
2018-08-28T09:18:22.148Z,97.90
2018-08-28T09:20:52.618Z,97.10
2018-08-28T09:23:22.790Z,97.40
2018-08-28T09:25:53.264Z,96.80
2018-08-28T09:28:23.658Z,96.20
2018-08-28T09:30:53.889Z,94.20
2018-08-28T09:33:24.523Z,94.00
2018-08-28T09:35:55.212Z,91.60
2018-08-28T09:38:25.842Z,91.40
2018-08-28T09:40:55.822Z,91.20
2018-08-28T09:43:25.789Z,90.30
2018-08-28T09:45:55.771Z,90.10
2018-08-28T09:48:25.697Z,88.60
2018-08-28T09:50:55.677Z,87.50
2018-08-28T09:53:26.184Z,87.60
2018-08-28T09:55:56.433Z,85.90
2018-08-28T09:58:26.810Z,81.30
2018-08-28T10:01:02.295Z,79.50
2018-08-28T10:03:32.827Z,77.60
2018-08-28T10:06:03.368Z,75.70
2018-08-28T10:08:33.766Z,70.60
2018-08-28T10:11:04.333Z,70.00
2018-08-28T10:13:34.502Z,65.90
2018-08-28T10:16:04.799Z,66.40
2018-08-28T10:18:34.939Z,64.70
2018-08-28T10:21:05.414Z,64.10
2018-08-28T10:23:35.689Z,64.20
2018-08-28T10:26:06.224Z,61.80
2018-08-28T10:28:36.735Z,61.20
2018-08-28T10:31:07.250Z,60.00
2018-08-28T10:33:37.508Z,59.30
2018-08-28T10:36:07.930Z,59.80
2018-08-28T10:38:38.389Z,59.10
2018-08-28T10:41:08.639Z,59.50
2018-08-28T10:43:38.931Z,61.00
2018-08-28T10:46:09.566Z,59.60
2018-08-28T10:48:40.224Z,59.70
2018-08-28T10:51:10.626Z,57.70
2018-08-28T10:53:40.932Z,57.00
2018-08-28T10:56:11.361Z,55.90
2018-08-28T10:58:42.827Z,56.00
2018-08-28T11:01:13.246Z,56.30
2018-08-28T11:03:43.776Z,54.40
2018-08-28T11:06:14.126Z,55.60
2018-08-28T11:08:44.454Z,54.80
2018-08-28T11:11:14.819Z,54.60
2018-08-28T11:13:45.234Z,55.10
2018-08-28T11:16:15.514Z,54.20
2018-08-28T11:18:45.816Z,54.40
2018-08-28T11:21:16.211Z,54.30
2018-08-28T11:23:46.673Z,54.00
2018-08-28T11:26:17.007Z,53.30
2018-08-28T11:28:47.392Z,52.70
2018-08-28T11:31:17.898Z,52.60
2018-08-28T11:33:47.793Z,51.80
2018-08-28T11:36:17.748Z,51.50
2018-08-28T11:38:48.096Z,50.60
2018-08-28T11:41:18.465Z,51.30
2018-08-28T11:43:48.752Z,49.60
2018-08-28T11:46:25.836Z,50.40
2018-08-28T11:48:56.451Z,49.60
2018-08-28T11:51:27.027Z,50.60
2018-08-28T11:53:57.625Z,50.40
2018-08-28T11:56:27.835Z,49.80
2018-08-28T11:58:58.395Z,51.40
2018-08-28T12:01:28.342Z,49.30
2018-08-28T12:03:58.331Z,48.20
2018-08-28T12:06:28.319Z,48.80
2018-08-28T12:08:59.009Z,48.90
2018-08-28T12:11:28.999Z,47.50
2018-08-28T12:13:58.986Z,47.50
2018-08-28T12:16:28.957Z,47.80
2018-08-28T12:18:58.903Z,46.90
2018-08-28T12:21:28.830Z,46.60
2018-08-28T12:23:58.782Z,44.50
2018-08-28T12:26:28.791Z,43.50
2018-08-28T12:28:58.793Z,42.60
2018-08-28T12:31:28.715Z,39.30
2018-08-28T12:33:58.743Z,37.20
2018-08-28T12:36:29.028Z,34.90
2018-08-28T12:38:59.361Z,33.80
2018-08-28T12:41:29.784Z,33.50
2018-08-28T12:44:00.347Z,32.30
2018-08-28T12:46:30.425Z,32.00
2018-08-28T12:49:00.815Z,31.20
2018-08-28T12:51:30.873Z,29.10
2018-08-28T12:54:00.714Z,29.90
2018-08-28T12:56:30.641Z,30.50
2018-08-28T12:59:00.618Z,29.40
2018-08-28T13:01:30.591Z,29.00
2018-08-28T13:04:00.855Z,29.10
2018-08-28T13:06:30.814Z,28.90
2018-08-28T13:09:00.869Z,28.60
2018-08-28T13:11:30.904Z,28.00
2018-08-28T13:14:00.971Z,27.90
2018-08-28T13:16:31.262Z,28.20
2018-08-28T13:19:01.652Z,27.80
2018-08-28T13:21:31.589Z,27.30
2018-08-28T13:24:01.539Z,27.70
2018-08-28T13:26:31.472Z,28.00
2018-08-28T13:29:01.434Z,28.00
2018-08-28T13:31:31.364Z,28.40
2018-08-28T13:34:01.307Z,28.00
2018-08-28T13:36:31.264Z,28.10
2018-08-28T13:39:01.198Z,28.00
2018-08-28T13:41:31.181Z,27.70
2018-08-28T13:44:01.172Z,28.80
2018-08-28T13:46:31.111Z,27.70
2018-08-28T13:49:01.032Z,27.70
2018-08-28T13:51:31.108Z,29.80
2018-08-28T13:54:01.622Z,29.70
2018-08-28T13:56:31.892Z,30.40
2018-08-28T13:59:02.376Z,29.80
2018-08-28T14:01:32.592Z,29.40
2018-08-28T14:04:03.326Z,29.20
2018-08-28T14:06:33.698Z,28.50
2018-08-28T14:09:04.676Z,29.20
2018-08-28T14:11:35.179Z,28.50
2018-08-28T14:14:05.452Z,28.60
2018-08-28T14:16:35.721Z,28.10
2018-08-28T14:19:06.117Z,28.60
2018-08-28T14:21:36.646Z,30.30
2018-08-28T14:24:08.201Z,30.40
2018-08-28T14:26:38.719Z,30.50
2018-08-28T14:29:09.158Z,30.10
2018-08-28T14:31:39.542Z,30.20
2018-08-28T14:34:09.974Z,30.90
2018-08-28T14:36:40.558Z,31.70
2018-08-28T14:39:10.818Z,32.00
2018-08-28T14:41:41.263Z,32.80
2018-08-28T14:44:11.869Z,32.50
2018-08-28T14:46:42.983Z,32.40
2018-08-28T14:49:13.425Z,32.20
2018-08-28T14:51:43.778Z,33.50
2018-08-28T14:54:14.287Z,32.40
2018-08-28T14:56:44.413Z,32.20
2018-08-28T14:59:14.614Z,33.50
2018-08-28T15:01:45.004Z,32.80
2018-08-28T15:04:15.519Z,33.10
2018-08-28T15:06:46.119Z,32.70
2018-08-28T15:09:16.383Z,34.00
2018-08-28T15:11:46.735Z,34.90
2018-08-28T15:14:17.249Z,36.00
2018-08-28T15:16:47.837Z,37.70
2018-08-28T15:19:18.265Z,39.20
2018-08-28T15:21:48.575Z,38.30
2018-08-28T15:24:18.809Z,39.30
2018-08-28T15:26:48.935Z,38.50
2018-08-28T15:29:19.180Z,40.00
2018-08-28T15:31:49.252Z,40.50
2018-08-28T15:34:19.191Z,40.30
2018-08-28T15:36:49.564Z,40.90
2018-08-28T15:39:19.602Z,40.70
2018-08-28T15:41:50.192Z,41.40
2018-08-28T15:44:20.523Z,42.10
2018-08-28T15:46:50.838Z,43.10
2018-08-28T15:49:21.190Z,42.40
2018-08-28T15:51:51.769Z,43.20
2018-08-28T15:54:22.263Z,43.20
2018-08-28T15:56:52.787Z,43.80
2018-08-28T15:59:23.198Z,44.30
2018-08-28T16:01:53.657Z,43.70
2018-08-28T16:04:24.144Z,44.70
2018-08-28T16:07:01.253Z,44.80
2018-08-28T16:09:31.624Z,45.30
2018-08-28T16:12:02.097Z,44.80
2018-08-28T16:14:32.519Z,45.30
2018-08-28T16:17:03.051Z,45.70
2018-08-28T16:19:33.460Z,46.20
2018-08-28T16:22:04.629Z,46.80
2018-08-28T16:24:35.061Z,47.20
2018-08-28T16:27:05.339Z,47.40
2018-08-28T16:29:35.653Z,47.70
2018-08-28T16:32:06.255Z,48.00
2018-08-28T16:34:36.630Z,47.90
2018-08-28T16:37:07.826Z,47.80
2018-08-28T16:39:38.597Z,48.10
2018-08-28T16:42:08.820Z,49.20
2018-08-28T16:44:39.269Z,49.20
2018-08-28T16:47:09.586Z,50.50
2018-08-28T16:49:39.916Z,50.80
2018-08-28T16:52:10.401Z,50.60
2018-08-28T16:54:40.660Z,51.10
2018-08-28T16:57:11.126Z,51.50
2018-08-28T16:59:41.403Z,51.80
2018-08-28T17:02:11.862Z,52.80
2018-08-28T17:04:42.202Z,53.20
2018-08-28T17:07:12.775Z,52.90
2018-08-28T17:09:43.040Z,53.40
2018-08-28T17:12:14.102Z,54.20
2018-08-28T17:14:44.559Z,54.80
2018-08-28T17:17:14.838Z,55.60
2018-08-28T17:19:45.036Z,56.30
2018-08-28T17:22:15.324Z,56.90
2018-08-28T17:24:45.671Z,57.20
2018-08-28T17:27:16.091Z,58.10
2018-08-28T17:29:46.508Z,58.80
2018-08-28T17:32:16.788Z,59.20
2018-08-28T17:34:47.188Z,59.70
2018-08-28T17:37:17.545Z,60.40
2018-08-28T17:39:48.147Z,60.80
2018-08-28T17:42:18.796Z,62.10
2018-08-28T17:44:49.337Z,63.00
2018-08-28T17:47:19.889Z,63.70
2018-08-28T17:49:50.226Z,64.70
2018-08-28T17:52:20.720Z,65.90
2018-08-28T17:54:51.145Z,67.50
2018-08-28T17:57:21.773Z,69.10
2018-08-28T17:59:52.283Z,70.70
2018-08-28T18:02:22.836Z,72.40
2018-08-28T18:04:53.136Z,73.30
2018-08-28T18:07:23.754Z,74.80
2018-08-28T18:09:54.076Z,76.20
2018-08-28T18:12:24.611Z,77.40
2018-08-28T18:14:55.320Z,78.80
2018-08-28T18:17:25.701Z,80.30
2018-08-28T18:19:56.335Z,81.80
2018-08-28T18:22:26.754Z,83.00
2018-08-28T18:24:57.167Z,84.20
2018-08-28T18:27:27.620Z,85.50
2018-08-28T18:29:57.992Z,87.30
2018-08-28T18:32:28.491Z,88.80
2018-08-28T18:34:58.949Z,90.30
2018-08-28T18:37:29.531Z,90.90
2018-08-28T18:40:00.022Z,91.50
2018-08-28T18:42:30.490Z,92.20
2018-08-28T18:45:01.787Z,92.70
2018-08-28T18:47:32.215Z,93.40
2018-08-28T18:50:03.059Z,94.20
2018-08-28T18:52:33.652Z,94.50
2018-08-28T18:55:05.705Z,95.30
2018-08-28T18:57:36.145Z,95.90
2018-08-28T19:00:07.399Z,96.40
2018-08-28T19:02:37.923Z,97.10
2018-08-28T19:05:08.910Z,97.40
2018-08-28T19:07:39.605Z,97.70
2018-08-28T19:10:09.959Z,98.30
2018-08-28T19:12:41.352Z,98.50
2018-08-28T19:15:11.653Z,98.60
2018-08-28T19:17:42.079Z,99.00
2018-08-28T19:20:19.195Z,99.20
2018-08-28T19:22:49.480Z,99.90
2018-08-28T19:25:26.499Z,99.90
2018-08-28T19:27:56.995Z,99.90
2018-08-28T19:30:33.774Z,99.90
2018-08-28T19:33:07.239Z,99.90
2018-08-28T19:35:37.923Z,99.90
2018-08-28T19:38:08.735Z,99.90
2018-08-28T19:40:39.150Z,99.90
2018-08-28T19:43:09.696Z,99.90
2018-08-28T19:45:46.682Z,99.90
2018-08-28T19:48:17.214Z,99.90
2018-08-28T19:50:47.531Z,99.90
2018-08-28T19:53:18.074Z,99.90
2018-08-28T19:55:48.357Z,99.90
2018-08-28T19:58:18.995Z,99.90
2018-08-28T20:00:49.311Z,99.90
2018-08-28T20:03:19.935Z,99.90
2018-08-28T20:05:50.413Z,99.90
2018-08-28T20:08:20.918Z,99.90
2018-08-28T20:10:51.316Z,99.90
2018-08-28T20:13:21.816Z,99.90
2018-08-28T20:15:52.702Z,99.90
2018-08-28T20:18:23.061Z,99.90
2018-08-28T20:20:53.396Z,99.90
2018-08-28T20:23:23.581Z,99.90
2018-08-28T20:25:54.017Z,99.90
2018-08-28T20:28:24.345Z,99.90
2018-08-28T20:30:54.772Z,99.90
2018-08-28T20:33:25.210Z,99.90
2018-08-28T20:35:55.726Z,99.90
2018-08-28T20:38:26.236Z,99.90
2018-08-28T20:40:56.449Z,99.90
2018-08-28T20:43:26.849Z,99.90
2018-08-28T20:45:57.119Z,99.90
2018-08-28T20:48:27.488Z,99.90
2018-08-28T20:50:57.831Z,99.90
2018-08-28T20:53:28.226Z,99.90
2018-08-28T20:55:59.103Z,99.90
2018-08-28T20:58:29.581Z,99.90
2018-08-28T21:01:00.078Z,99.90
2018-08-28T21:03:30.648Z,99.90
2018-08-28T21:06:00.886Z,99.90
2018-08-28T21:08:31.409Z,99.90
2018-08-28T21:11:01.613Z,99.90
2018-08-28T21:13:32.012Z,99.90
2018-08-28T21:16:02.393Z,99.90
2018-08-28T21:18:32.709Z,99.90
2018-08-28T21:21:03.094Z,99.90
2018-08-28T21:23:33.689Z,99.90
2018-08-28T21:26:04.023Z,99.90
2018-08-28T21:28:34.528Z,99.90
2018-08-28T21:31:04.906Z,99.90
2018-08-28T21:33:35.483Z,99.90
2018-08-28T21:36:05.802Z,99.90
2018-08-28T21:38:36.126Z,99.90
2018-08-28T21:41:06.620Z,99.90
2018-08-28T21:43:37.218Z,99.90
2018-08-28T21:46:07.671Z,99.90
2018-08-28T21:48:38.148Z,99.90
2018-08-28T21:51:08.518Z,99.90
2018-08-28T21:53:38.933Z,99.90
2018-08-28T21:56:09.310Z,99.90
2018-08-28T21:58:39.728Z,99.90
2018-08-28T22:01:12.709Z,99.90
2018-08-28T22:03:43.178Z,99.90
2018-08-28T22:06:18.464Z,99.90
2018-08-28T22:08:49.049Z,99.90
2018-08-28T22:11:19.331Z,99.90
2018-08-28T22:13:49.879Z,99.90
2018-08-28T22:16:20.891Z,99.90
2018-08-28T22:18:51.433Z,99.90
2018-08-28T22:21:21.857Z,99.90
2018-08-28T22:23:52.407Z,99.90
2018-08-28T22:26:22.998Z,99.90
2018-08-28T22:28:53.225Z,99.90
2018-08-28T22:31:23.722Z,99.90
2018-08-28T22:33:54.210Z,99.90
2018-08-28T22:36:24.709Z,99.90
2018-08-28T22:38:55.487Z,99.90
2018-08-28T22:41:25.727Z,99.90
2018-08-28T22:43:56.131Z,99.90
2018-08-28T22:46:26.497Z,99.90
2018-08-28T22:48:57.095Z,99.90
2018-08-28T22:51:27.621Z,99.90
2018-08-28T22:53:57.798Z,99.90
2018-08-28T22:56:28.157Z,99.90
2018-08-28T22:58:58.706Z,99.90
2018-08-28T23:01:29.087Z,99.90
2018-08-28T23:03:59.722Z,99.90
2018-08-28T23:06:30.287Z,99.90
2018-08-28T23:09:00.505Z,99.90
2018-08-28T23:11:30.566Z,99.90
2018-08-28T23:14:01.064Z,99.90
2018-08-28T23:16:31.536Z,99.90
2018-08-28T23:19:01.769Z,99.90
2018-08-28T23:21:32.066Z,99.90
2018-08-28T23:24:02.674Z,99.90
2018-08-28T23:26:35.727Z,99.90
2018-08-28T23:29:06.072Z,99.90
2018-08-28T23:31:37.353Z,99.90
2018-08-28T23:34:07.601Z,99.90
2018-08-28T23:36:37.834Z,99.90
2018-08-28T23:39:08.762Z,99.90
2018-08-28T23:41:39.312Z,99.90
2018-08-28T23:44:09.563Z,99.90
2018-08-28T23:46:39.919Z,99.90
2018-08-28T23:49:10.380Z,99.90
2018-08-28T23:51:40.655Z,99.90
2018-08-28T23:54:11.012Z,99.90
2018-08-28T23:56:41.403Z,99.90
2018-08-28T23:59:11.654Z,99.90
